Time;durP1;ratioP1;P1;durP2;ratioP2;P2;SDS_P1;SDS_P2;PMS_P1;PMS_P2;Temp;Humidity;BMP_temperature;BMP_pressure;BME280_temperature;BME280_humidity;BME280_pressure;Samples;Min_cycle;Max_cycle;Signal;HPM_P1;HPM_P2
2022/06/29 00:00:02;;;;;;;3.47;2.10;;;15.90;96.50;;;;;;5041509;28;20222;-80
2022/06/29 00:02:33;;;;;;;3.87;2.40;;;15.90;96.70;;;;;;5055150;28;20227;-81
2022/06/29 00:05:03;;;;;;;2.80;2.30;;;15.90;96.70;;;;;;5053285;28;20231;-80
2022/06/29 00:07:29;;;;;;;2.97;2.23;;;15.80;97.00;;;;;;5057122;28;20221;-80
2022/06/29 00:09:56;;;;;;;2.47;2.17;;;15.80;96.80;;;;;;5031540;28;20238;-80
2022/06/29 00:12:22;;;;;;;3.40;2.50;;;15.80;96.90;;;;;;5044383;28;20232;-80
2022/06/29 00:14:49;;;;;;;3.20;1.90;;;15.70;96.90;;;;;;5050921;28;20228;-80
2022/06/29 00:17:16;;;;;;;3.10;2.27;;;15.70;96.90;;;;;;5047360;28;20859;-81
2022/06/29 00:19:43;;;;;;;3.43;2.27;;;15.70;96.90;;;;;;5030648;28;20224;-81
2022/06/29 00:22:11;;;;;;;2.20;2.00;;;15.70;97.10;;;;;;5049750;28;20233;-80
2022/06/29 00:24:38;;;;;;;3.20;2.00;;;15.70;97.30;;;;;;5051494;28;20307;-80
2022/06/29 00:27:05;;;;;;;2.53;2.20;;;15.60;97.20;;;;;;5056879;28;20356;-80
2022/06/29 00:29:32;;;;;;;2.40;2.17;;;15.60;97.30;;;;;;5024455;28;20643;-80
2022/06/29 00:31:59;;;;;;;3.43;2.37;;;15.60;97.30;;;;;;5055433;28;20219;-80
2022/06/29 00:34:26;;;;;;;2.53;2.07;;;15.60;97.40;;;;;;5048547;28;20227;-80
2022/06/29 00:36:52;;;;;;;2.80;2.03;;;15.50;97.30;;;;;;5056240;28;20228;-80
2022/06/29 00:39:20;;;;;;;1.90;1.70;;;15.50;97.20;;;;;;5035220;28;20219;-80
2022/06/29 00:41:47;;;;;;;2.30;1.97;;;15.50;97.30;;;;;;5038519;28;20233;-81
2022/06/29 00:44:15;;;;;;;2.33;2.03;;;15.50;97.40;;;;;;5054681;28;20224;-80
2022/06/29 00:46:47;;;;;;;2.47;2.10;;;15.50;97.40;;;;;;5051719;28;20224;-80
2022/06/29 00:49:14;;;;;;;5.23;2.00;;;15.40;97.60;;;;;;5049996;28;20231;-80
2022/06/29 00:51:44;;;;;;;2.17;1.93;;;15.40;97.40;;;;;;5032464;28;20239;-80
2022/06/29 00:54:15;;;;;;;2.60;2.20;;;15.40;97.40;;;;;;5049520;28;20216;-80
2022/06/29 00:56:44;;;;;;;3.50;1.80;;;15.40;97.50;;;;;;5043800;28;20220;-80
2022/06/29 00:59:13;;;;;;;2.03;1.77;;;15.40;97.40;;;;;;5044255;28;20227;-79
2022/06/29 01:01:42;;;;;;;3.00;1.93;;;15.40;97.40;;;;;;5050248;28;20823;-81
2022/06/29 01:04:09;;;;;;;2.13;1.80;;;15.30;97.40;;;;;;5049833;28;20261;-80
2022/06/29 01:06:36;;;;;;;2.90;1.80;;;15.30;97.30;;;;;;5055927;28;20224;-81
2022/06/29 01:09:04;;;;;;;2.53;1.63;;;15.30;97.30;;;;;;5048018;28;20238;-81
2022/06/29 01:11:31;;;;;;;2.50;2.00;;;15.30;97.40;;;;;;5052676;28;20932;-81
2022/06/29 01:14:00;;;;;;;1.83;1.73;;;15.20;97.40;;;;;;5052363;28;20215;-81
2022/06/29 01:16:27;;;;;;;2.57;2.20;;;15.20;97.50;;;;;;5048624;28;20571;-80
2022/06/29 01:18:54;;;;;;;2.43;1.80;;;15.20;97.40;;;;;;5058565;28;20337;-80
2022/06/29 01:21:22;;;;;;;2.20;2.00;;;15.20;97.40;;;;;;5034406;28;20709;-79
2022/06/29 01:23:50;;;;;;;2.97;1.93;;;15.20;97.40;;;;;;5050507;28;20223;-80
2022/06/29 01:26:17;;;;;;;2.53;1.80;;;15.20;97.40;;;;;;5050869;28;20235;-80
2022/06/29 01:28:46;;;;;;;3.03;1.53;;;15.20;97.40;;;;;;5046060;28;20797;-80
2022/06/29 01:31:17;;;;;;;1.90;1.60;;;15.10;97.40;;;;;;5051151;28;20226;-80
2022/06/29 01:33:44;;;;;;;1.93;1.67;;;15.10;97.50;;;;;;5047774;28;20232;-81
2022/06/29 01:36:11;;;;;;;2.30;2.10;;;15.10;97.40;;;;;;5046289;28;20262;-81
2022/06/29 01:38:39;;;;;;;1.70;1.60;;;15.10;97.40;;;;;;5037784;28;20224;-80
2022/06/29 01:41:08;;;;;;;1.70;1.50;;;15.10;97.50;;;;;;5059451;28;20226;-80
2022/06/29 01:43:35;;;;;;;2.63;1.90;;;15.10;97.60;;;;;;5025841;28;20319;-80
2022/06/29 01:46:02;;;;;;;2.40;1.80;;;15.00;97.50;;;;;;5050073;28;20592;-79
2022/06/29 01:48:29;;;;;;;2.83;1.87;;;15.00;97.50;;;;;;5041926;28;20220;-79
2022/06/29 01:50:55;;;;;;;2.20;1.60;;;15.00;97.50;;;;;;5039403;28;20223;-80
2022/06/29 01:53:22;;;;;;;1.97;1.70;;;14.90;97.40;;;;;;5051361;28;20857;-80
2022/06/29 01:55:49;;;;;;;1.93;1.70;;;14.90;97.40;;;;;;5035986;28;20226;-80
2022/06/29 01:58:18;;;;;;;2.17;1.67;;;14.90;97.50;;;;;;5055783;28;20246;-80
2022/06/29 02:00:45;;;;;;;2.13;1.93;;;14.90;97.60;;;;;;5047134;28;20242;-81
2022/06/29 02:03:14;;;;;;;1.90;1.70;;;14.80;97.60;;;;;;5050822;28;20307;-81
2022/06/29 02:05:41;;;;;;;2.27;1.70;;;14.80;97.70;;;;;;5046314;28;20346;-81
2022/06/29 02:08:08;;;;;;;2.30;1.60;;;14.80;97.70;;;;;;5054863;28;20873;-80
2022/06/29 02:10:36;;;;;;;1.43;1.30;;;14.80;97.80;;;;;;5052886;28;20226;-80
2022/06/29 02:13:02;;;;;;;2.73;1.50;;;14.80;97.90;;;;;;5052046;28;20223;-81
2022/06/29 02:15:30;;;;;;;2.20;1.70;;;14.70;97.80;;;;;;5047354;28;20688;-81
2022/06/29 02:17:57;;;;;;;3.33;1.60;;;14.70;98.00;;;;;;5049471;28;20459;-81
2022/06/29 02:20:24;;;;;;;2.03;1.53;;;14.70;97.90;;;;;;5048362;28;20296;-81
2022/06/29 02:22:50;;;;;;;2.10;1.40;;;14.70;97.90;;;;;;5051012;28;20231;-81
2022/06/29 02:25:17;;;;;;;2.77;1.87;;;14.70;98.00;;;;;;5042259;28;20228;-80
2022/06/29 02:27:46;;;;;;;2.17;1.57;;;14.70;98.00;;;;;;5053687;28;20302;-80
2022/06/29 02:30:14;;;;;;;2.53;1.50;;;14.70;98.10;;;;;;5047387;28;20224;-81
2022/06/29 02:35:27;;;;;;;3.73;1.63;;;14.60;98.20;;;;;;5027919;28;20235;-81
2022/06/29 02:37:54;;;;;;;5.40;1.90;;;14.60;98.10;;;;;;5050121;28;20227;-81
2022/06/29 02:40:22;;;;;;;1.87;1.63;;;14.60;98.10;;;;;;5037653;28;20223;-81
2022/06/29 02:42:49;;;;;;;3.03;1.50;;;14.60;98.20;;;;;;5052033;28;20225;-81
2022/06/29 02:45:16;;;;;;;3.37;1.80;;;14.60;98.20;;;;;;5046613;28;20236;-82
2022/06/29 02:47:44;;;;;;;2.70;1.40;;;14.60;98.30;;;;;;5053375;28;20227;-79
2022/06/29 02:50:11;;;;;;;2.60;1.73;;;14.60;98.30;;;;;;5052882;28;20226;-84
2022/06/29 02:52:37;;;;;;;2.37;1.50;;;14.60;98.30;;;;;;5045462;28;20227;-84
2022/06/29 02:55:05;;;;;;;2.10;1.40;;;14.60;98.40;;;;;;5050139;28;20220;-83
2022/06/29 02:57:31;;;;;;;3.00;1.90;;;14.60;98.50;;;;;;5042174;28;20306;-84
2022/06/29 02:59:58;;;;;;;4.03;1.70;;;14.60;98.50;;;;;;5049770;28;20227;-87
2022/06/29 03:02:25;;;;;;;1.63;1.50;;;14.50;98.50;;;;;;5051099;28;20240;-86
2022/06/29 03:04:53;;;;;;;3.50;2.40;;;14.50;98.50;;;;;;5029489;28;20218;-83
2022/06/29 03:07:19;;;;;;;2.60;2.00;;;14.50;98.60;;;;;;5030800;28;20598;-85
2022/06/29 03:09:46;;;;;;;2.47;1.50;;;14.50;98.50;;;;;;5038261;28;20230;-84
2022/06/29 03:12:13;;;;;;;2.37;1.60;;;14.50;98.50;;;;;;5055815;28;20632;-83
2022/06/29 03:14:39;;;;;;;2.07;1.53;;;14.50;98.60;;;;;;5049971;28;20243;-84
2022/06/29 03:17:06;;;;;;;2.80;1.80;;;14.50;98.60;;;;;;5026525;28;20244;-84
2022/06/29 03:19:33;;;;;;;2.47;1.70;;;14.50;98.70;;;;;;5051396;28;20226;-83
2022/06/29 03:22:01;;;;;;;2.83;1.40;;;14.50;98.70;;;;;;5032024;28;20265;-82
2022/06/29 03:24:28;;;;;;;2.80;1.50;;;14.50;98.80;;;;;;5031761;28;20235;-83
2022/06/29 03:26:54;;;;;;;1.97;1.67;;;14.50;98.80;;;;;;5038636;28;20232;-83
2022/06/29 03:29:21;;;;;;;3.93;1.53;;;14.60;98.80;;;;;;5026110;28;20231;-84
2022/06/29 03:31:48;;;;;;;2.93;1.60;;;14.60;98.90;;;;;;5036286;28;20239;-83
2022/06/29 03:34:15;;;;;;;3.43;1.90;;;14.60;98.90;;;;;;5035409;28;20220;-81
2022/06/29 03:36:42;;;;;;;3.27;1.80;;;14.60;98.90;;;;;;5051892;28;20226;-83
2022/06/29 03:39:10;;;;;;;9.03;1.70;;;14.60;99.00;;;;;;5041058;28;20215;-82
2022/06/29 03:41:37;;;;;;;4.77;1.63;;;14.70;99.10;;;;;;5061375;28;20238;-79
2022/06/29 03:44:04;;;;;;;3.07;1.40;;;14.70;99.10;;;;;;5063546;28;21204;-82
2022/06/29 03:46:31;;;;;;;2.73;1.40;;;14.80;99.10;;;;;;5029452;28;20231;-82
2022/06/29 03:48:58;;;;;;;5.00;1.60;;;14.80;99.00;;;;;;5048422;28;20228;-83
2022/06/29 03:51:24;;;;;;;1.97;1.50;;;14.90;99.00;;;;;;5050143;28;20243;-83
2022/06/29 03:53:52;;;;;;;3.30;1.40;;;14.90;99.00;;;;;;5045020;28;20223;-82
2022/06/29 03:56:20;;;;;;;2.93;1.50;;;15.00;99.00;;;;;;5043324;28;20715;-83
2022/06/29 03:58:47;;;;;;;1.67;1.30;;;15.10;99.00;;;;;;5043906;28;20235;-82
2022/06/29 04:01:13;;;;;;;2.73;1.80;;;15.20;98.90;;;;;;5046469;28;20227;-83
2022/06/29 04:03:40;;;;;;;3.00;1.40;;;15.20;98.80;;;;;;5025824;28;20232;-81
2022/06/29 04:06:08;;;;;;;3.37;1.53;;;15.30;98.70;;;;;;5039038;28;20234;-82
2022/06/29 04:08:36;;;;;;;3.87;1.87;;;15.40;98.70;;;;;;5044035;28;20223;-83
2022/06/29 04:11:48;;;;;;;1.63;1.30;;;15.50;98.80;;;;;;5052900;28;20238;-81
2022/06/29 04:13:53;;;;;;;1.93;1.47;;;15.50;98.70;;;;;;5030646;28;20228;-83
2022/06/29 04:16:20;;;;;;;1.50;1.27;;;15.60;98.60;;;;;;5035673;28;20250;-84
2022/06/29 04:18:47;;;;;;;1.67;1.40;;;15.60;98.40;;;;;;5048981;28;20248;-82
2022/06/29 04:21:13;;;;;;;2.83;1.87;;;15.70;98.40;;;;;;5028098;28;20224;-82
2022/06/29 04:23:40;;;;;;;2.90;1.60;;;15.80;98.40;;;;;;5047158;28;20243;-84
2022/06/29 04:26:07;;;;;;;5.53;1.50;;;15.80;98.30;;;;;;5033006;28;20224;-83
2022/06/29 04:28:34;;;;;;;2.73;1.43;;;15.90;98.20;;;;;;5034953;28;20238;-83
2022/06/29 04:31:02;;;;;;;1.90;1.57;;;15.90;98.10;;;;;;5052913;28;20970;-81
2022/06/29 04:33:29;;;;;;;1.80;1.40;;;16.00;98.10;;;;;;5055135;28;20226;-82
2022/06/29 04:35:55;;;;;;;2.37;1.37;;;16.00;98.00;;;;;;5050956;28;20226;-83
2022/06/29 04:38:22;;;;;;;1.57;1.33;;;16.10;97.90;;;;;;5056986;28;20226;-83
2022/06/29 04:40:49;;;;;;;2.33;1.30;;;16.20;97.80;;;;;;5050534;28;20234;-84
2022/06/29 04:43:16;;;;;;;1.63;1.37;;;16.20;97.50;;;;;;5035935;28;20238;-82
2022/06/29 04:48:28;;;;;;;2.03;1.40;;;16.30;97.10;;;;;;5035782;28;20305;-82
2022/06/29 04:50:54;;;;;;;1.83;1.20;;;16.40;97.00;;;;;;5041374;28;20234;-82
2022/06/29 04:53:22;;;;;;;3.87;1.33;;;16.50;96.90;;;;;;5046821;28;20223;-82
2022/06/29 04:55:48;;;;;;;1.97;1.20;;;16.50;96.70;;;;;;5058968;28;20236;-83
2022/06/29 04:58:15;;;;;;;1.23;1.13;;;16.60;96.60;;;;;;5035716;28;20222;-84
2022/06/29 05:00:42;;;;;;;1.50;1.38;;;16.60;96.50;;;;;;5050768;28;20220;-83
2022/06/29 05:03:08;;;;;;;2.25;1.17;;;16.70;96.40;;;;;;5054796;28;20232;-84
2022/06/29 05:05:36;;;;;;;1.20;1.10;;;16.70;96.20;;;;;;5022382;28;20235;-82
2022/06/29 05:08:03;;;;;;;3.87;1.30;;;16.70;96.10;;;;;;5043978;28;20226;-82
2022/06/29 05:10:30;;;;;;;1.53;1.20;;;16.80;96.10;;;;;;5049972;28;20869;-83
2022/06/29 05:12:57;;;;;;;1.50;1.37;;;16.80;95.90;;;;;;5062008;28;20318;-84
2022/06/29 05:15:24;;;;;;;2.00;1.20;;;16.90;95.80;;;;;;5052105;28;20231;-83
2022/06/29 05:17:51;;;;;;;1.77;1.40;;;16.90;95.80;;;;;;5059210;28;20246;-83
2022/06/29 05:20:20;;;;;;;1.98;1.25;;;17.00;95.80;;;;;;5049307;28;20303;-83
2022/06/29 05:22:48;;;;;;;2.20;1.43;;;17.00;95.70;;;;;;5047870;28;20228;-84
2022/06/29 05:25:15;;;;;;;2.67;1.45;;;17.10;95.60;;;;;;5036671;28;20454;-84
2022/06/29 05:27:42;;;;;;;2.20;1.50;;;17.20;95.60;;;;;;5060631;28;20234;-83
2022/06/29 05:30:09;;;;;;;3.47;1.40;;;17.20;95.50;;;;;;5056454;28;20220;-84
2022/06/29 05:32:36;;;;;;;2.23;1.23;;;17.30;95.30;;;;;;5046260;28;20246;-84
2022/06/29 05:35:03;;;;;;;1.35;1.02;;;17.30;95.00;;;;;;5050063;28;20228;-83
2022/06/29 05:37:30;;;;;;;1.23;1.00;;;17.40;95.10;;;;;;5048464;28;20231;-84
2022/06/29 05:39:58;;;;;;;2.95;1.17;;;17.50;95.10;;;;;;5048525;28;20235;-84
2022/06/29 05:42:25;;;;;;;1.93;1.07;;;17.50;94.90;;;;;;5031107;28;20239;-83
2022/06/29 05:44:52;;;;;;;3.35;1.10;;;17.50;94.80;;;;;;5032123;28;20238;-82
2022/06/29 05:47:19;;;;;;;1.67;1.10;;;17.60;94.70;;;;;;5047751;28;20258;-83
2022/06/29 05:49:46;;;;;;;1.48;1.00;;;17.60;94.60;;;;;;5030851;28;20247;-82
2022/06/29 05:52:12;;;;;;;2.55;1.00;;;17.70;94.50;;;;;;5031401;28;20236;-84
2022/06/29 05:54:39;;;;;;;2.65;1.30;;;17.80;94.40;;;;;;5043526;28;20716;-83
2022/06/29 05:57:07;;;;;;;1.88;1.17;;;17.80;94.50;;;;;;5051757;28;20227;-83
2022/06/29 05:59:34;;;;;;;1.20;1.10;;;17.90;94.40;;;;;;5044979;28;20594;-82
2022/06/29 06:02:01;;;;;;;3.10;1.13;;;17.90;94.20;;;;;;5049587;28;20227;-82
2022/06/29 06:04:28;;;;;;;2.47;1.15;;;18.00;94.10;;;;;;5060510;28;20228;-82
2022/06/29 06:06:55;;;;;;;6.43;1.20;;;18.10;94.00;;;;;;5043994;28;20259;-83
2022/06/29 06:09:26;;;;;;;3.65;0.90;;;18.20;93.90;;;;;;5037904;28;20227;-82
2022/06/29 06:11:53;;;;;;;1.45;1.00;;;18.20;93.80;;;;;;5048573;28;20314;-83
2022/06/29 06:14:21;;;;;;;1.30;1.08;;;18.30;93.70;;;;;;5052474;28;20221;-81
2022/06/29 06:16:48;;;;;;;1.35;1.00;;;18.40;93.50;;;;;;5032688;28;20234;-82
2022/06/29 06:19:15;;;;;;;2.78;1.10;;;18.50;93.70;;;;;;5050579;28;20224;-82
2022/06/29 06:21:41;;;;;;;1.75;1.10;;;18.60;93.70;;;;;;5051096;28;20238;-82
2022/06/29 06:24:08;;;;;;;2.67;1.05;;;18.70;93.60;;;;;;5032167;28;20681;-82
2022/06/29 06:26:35;;;;;;;1.58;0.98;;;18.80;93.50;;;;;;5032213;28;20307;-82
2022/06/29 06:29:02;;;;;;;2.20;0.93;;;18.90;93.10;;;;;;5051242;28;20228;-82
2022/06/29 06:31:30;;;;;;;1.30;1.10;;;19.10;93.10;;;;;;5048965;28;20231;-82
2022/06/29 06:33:56;;;;;;;4.47;0.90;;;19.20;93.00;;;;;;5050810;28;20220;-82
2022/06/29 06:36:23;;;;;;;2.38;1.15;;;19.30;93.10;;;;;;5033423;28;20833;-82
2022/06/29 06:38:50;;;;;;;1.85;1.17;;;19.50;92.80;;;;;;5052818;28;20671;-82
2022/06/29 06:41:21;;;;;;;2.80;0.90;;;19.60;92.60;;;;;;5047215;28;20254;-82
2022/06/29 06:43:48;;;;;;;2.67;1.25;;;19.70;92.60;;;;;;5051934;28;20219;-82
2022/06/29 06:46:15;;;;;;;2.35;1.08;;;19.80;92.50;;;;;;5032673;28;20228;-82
2022/06/29 06:48:43;;;;;;;3.45;1.10;;;20.00;92.40;;;;;;5051844;28;20474;-82
2022/06/29 06:51:10;;;;;;;1.30;0.90;;;20.10;92.20;;;;;;5050447;28;20250;-83
2022/06/29 06:53:37;;;;;;;1.08;0.98;;;20.30;91.90;;;;;;5065943;28;20226;-83
2022/06/29 06:56:04;;;;;;;1.45;1.00;;;20.40;91.70;;;;;;5068845;28;20269;-83
2022/06/29 06:58:31;;;;;;;2.17;1.10;;;20.60;91.70;;;;;;5069175;28;20223;-83
2022/06/29 07:00:58;;;;;;;4.50;1.35;;;20.70;91.20;;;;;;5022399;28;20773;-83
2022/06/29 07:03:24;;;;;;;1.95;1.00;;;20.80;91.50;;;;;;5055012;28;20607;-83
2022/06/29 07:05:52;;;;;;;4.03;1.23;;;21.00;91.50;;;;;;5032119;28;20232;-82
2022/06/29 07:08:19;;;;;;;2.67;1.23;;;21.20;91.40;;;;;;5038078;28;20637;-83
2022/06/29 07:10:45;;;;;;;4.00;1.45;;;21.50;91.10;;;;;;5067362;28;20269;-83
2022/06/29 07:13:12;;;;;;;2.35;1.20;;;21.80;91.10;;;;;;5029920;28;20709;-84
2022/06/29 07:15:39;;;;;;;2.15;1.20;;;22.20;90.50;;;;;;5032643;28;20220;-84
2022/06/29 07:18:06;;;;;;;1.88;1.20;;;22.50;90.60;;;;;;5045006;28;20228;-83
2022/06/29 07:20:32;;;;;;;2.58;0.90;;;22.90;89.70;;;;;;5047102;28;20236;-84
2022/06/29 07:23:00;;;;;;;1.23;1.00;;;23.20;89.20;;;;;;5031010;28;20308;-83
2022/06/29 07:25:27;;;;;;;3.70;1.15;;;23.50;88.60;;;;;;5055344;28;20223;-84
2022/06/29 07:27:54;;;;;;;2.13;1.27;;;23.80;86.70;;;;;;5058365;28;20341;-83
2022/06/29 07:30:20;;;;;;;4.15;1.35;;;24.00;86.80;;;;;;5034006;28;20230;-85
2022/06/29 07:32:47;;;;;;;1.20;0.93;;;24.10;86.10;;;;;;5051738;28;20231;-82
2022/06/29 07:35:14;;;;;;;2.47;1.35;;;24.30;85.90;;;;;;5031899;28;20242;-83
2022/06/29 07:37:40;;;;;;;2.70;1.20;;;24.50;85.60;;;;;;5049138;28;20709;-82
2022/06/29 07:40:10;;;;;;;1.20;1.10;;;24.70;84.90;;;;;;5049088;28;20716;-80
2022/06/29 07:42:38;;;;;;;1.40;1.00;;;24.90;84.20;;;;;;5046666;28;20234;-80
2022/06/29 07:45:06;;;;;;;1.60;1.20;;;25.30;83.90;;;;;;5053222;28;20322;-82
2022/06/29 07:47:33;;;;;;;1.60;1.00;;;25.60;83.70;;;;;;5030763;28;20594;-79
2022/06/29 07:49:59;;;;;;;2.22;1.30;;;26.00;83.10;;;;;;5040599;28;20230;-78
2022/06/29 07:52:26;;;;;;;2.25;1.10;;;26.40;81.20;;;;;;5050450;28;20319;-80
2022/06/29 07:54:53;;;;;;;3.20;1.00;;;26.70;80.40;;;;;;5055083;28;20235;-80
2022/06/29 07:57:21;;;;;;;1.73;1.00;;;27.10;79.20;;;;;;5053382;28;20291;-80
2022/06/29 07:59:48;;;;;;;1.40;1.08;;;27.40;78.70;;;;;;5032301;28;21091;-82
2022/06/29 08:02:15;;;;;;;2.05;1.00;;;27.80;78.70;;;;;;5043427;28;20719;-83
2022/06/29 08:04:41;;;;;;;4.80;1.30;;;28.20;76.50;;;;;;5044382;28;20241;-83
2022/06/29 08:07:08;;;;;;;1.45;0.95;;;28.50;73.30;;;;;;5050232;28;20239;-83
2022/06/29 08:09:35;;;;;;;1.77;1.27;;;28.90;74.00;;;;;;5039629;28;20270;-83
2022/06/29 08:12:02;;;;;;;1.60;1.00;;;29.10;71.80;;;;;;5036967;28;20220;-83
2022/06/29 08:14:30;;;;;;;1.23;0.90;;;29.30;71.30;;;;;;5050542;28;20731;-83
2022/06/29 08:16:57;;;;;;;1.95;1.00;;;29.50;71.00;;;;;;5052258;28;20687;-83
2022/06/29 08:19:24;;;;;;;1.80;1.20;;;29.70;70.60;;;;;;5049441;28;21304;-83
2022/06/29 08:21:51;;;;;;;2.63;1.10;;;29.90;70.50;;;;;;5053906;28;20242;-83
2022/06/29 08:24:17;;;;;;;1.30;1.20;;;30.00;67.40;;;;;;5040587;28;20224;-83
2022/06/29 08:26:44;;;;;;;1.30;1.20;;;30.00;67.10;;;;;;5070638;28;20231;-83
2022/06/29 08:29:11;;;;;;;1.85;1.00;;;29.90;66.30;;;;;;5031005;28;20220;-83
2022/06/29 08:31:39;;;;;;;1.92;1.00;;;29.70;66.90;;;;;;5044670;28;20281;-82
2022/06/29 08:34:06;;;;;;;3.80;1.20;;;29.70;66.40;;;;;;5053268;28;20220;-82
2022/06/29 08:36:32;;;;;;;5.18;1.42;;;29.80;66.40;;;;;;5054968;28;20227;-83
2022/06/29 08:39:01;;;;;;;2.03;1.17;;;30.00;65.80;;;;;;5068126;28;20234;-83
2022/06/29 08:41:29;;;;;;;2.33;1.20;;;30.10;65.10;;;;;;5063895;28;20228;-83
2022/06/29 08:43:58;;;;;;;2.80;0.93;;;30.30;65.20;;;;;;5042247;28;20211;-83
2022/06/29 08:46:25;;;;;;;2.60;1.30;;;30.50;65.60;;;;;;5049191;28;20302;-82
2022/06/29 08:48:53;;;;;;;8.35;2.08;;;30.80;64.70;;;;;;5065765;28;20233;-83
2022/06/29 08:51:22;;;;;;;1.80;1.30;;;31.10;63.80;;;;;;5055646;28;20235;-83
2022/06/29 08:53:50;;;;;;;3.53;1.52;;;31.20;62.20;;;;;;5036215;28;20221;-83
2022/06/29 08:56:19;;;;;;;3.67;2.00;;;31.40;61.70;;;;;;5055078;28;20216;-83
2022/06/29 08:58:51;;;;;;;2.58;1.45;;;31.50;60.50;;;;;;5074757;28;20231;-83
2022/06/29 09:01:18;;;;;;;7.38;1.88;;;31.50;61.00;;;;;;5047605;28;20227;-83
2022/06/29 09:03:46;;;;;;;2.08;1.70;;;31.50;60.30;;;;;;5070269;28;20595;-83
2022/06/29 09:06:14;;;;;;;8.52;1.45;;;31.60;60.90;;;;;;5075790;28;20227;-83
2022/06/29 09:08:40;;;;;;;2.60;1.20;;;31.60;60.40;;;;;;5066520;28;20433;-83
2022/06/29 09:11:24;;;;;;;15.35;2.40;;;31.70;60.50;;;;;;5066229;28;20224;-83
2022/06/29 09:14:13;;;;;;;10.35;2.33;;;31.60;58.80;;;;;;5097430;22;20714;-76
2022/06/29 09:16:53;;;;;;;5.60;2.25;;;31.70;59.60;;;;;;5082676;28;20233;-76
2022/06/29 09:19:22;;;;;;;1.55;1.45;;;31.70;60.00;;;;;;5071455;28;20222;-76
2022/06/29 09:21:51;;;;;;;2.90;1.33;;;31.90;59.40;;;;;;5060390;28;20548;-76
2022/06/29 09:24:19;;;;;;;3.13;1.20;;;31.90;59.20;;;;;;5047296;28;20236;-76
2022/06/29 09:26:50;;;;;;;4.32;1.65;;;32.00;59.00;;;;;;5064995;28;20220;-76
2022/06/29 09:29:21;;;;;;;2.90;1.20;;;32.20;59.20;;;;;;5047268;28;20323;-76
2022/06/29 09:32:28;;;;;;;1.70;1.20;;;32.40;59.50;;;;;;5062766;28;20220;-76
2022/06/29 09:34:54;;;;;;;10.60;3.67;;;32.70;58.60;;;;;;5052883;28;20692;-76
2022/06/29 09:37:25;;;;;;;5.70;1.98;;;32.90;57.70;;;;;;5040381;28;20611;-76
2022/06/29 09:39:53;;;;;;;6.45;1.55;;;32.90;56.50;;;;;;5061398;28;20641;-76
2022/06/29 09:42:22;;;;;;;2.15;1.40;;;32.80;56.80;;;;;;5054328;28;20303;-76
2022/06/29 09:44:49;;;;;;;3.83;1.20;;;32.50;55.90;;;;;;5065056;28;20590;-76
2022/06/29 09:47:19;;;;;;;3.38;1.38;;;32.10;55.50;;;;;;5065208;28;20326;-76
2022/06/29 09:49:47;;;;;;;2.83;1.30;;;31.90;56.30;;;;;;5065932;28;20875;-76
2022/06/29 09:52:15;;;;;;;1.80;1.27;;;31.90;56.80;;;;;;5052780;28;20220;-76
2022/06/29 09:54:47;;;;;;;2.88;1.70;;;31.90;56.10;;;;;;5044045;28;20224;-76
2022/06/29 09:57:17;;;;;;;2.35;1.30;;;32.00;55.30;;;;;;5059615;28;20223;-76
2022/06/29 10:02:37;;;;;;;2.20;1.15;;;31.90;55.50;;;;;;5045951;28;20239;-76
2022/06/29 10:05:06;;;;;;;3.67;1.63;;;31.80;55.60;;;;;;5046361;28;20231;-76
2022/06/29 10:07:34;;;;;;;3.15;1.30;;;31.60;55.80;;;;;;5065596;28;20318;-76
2022/06/29 10:10:05;;;;;;;4.13;1.25;;;31.40;56.20;;;;;;5061569;28;20777;-76
2022/06/29 10:15:50;;;;;;;9.27;1.45;;;31.10;56.60;;;;;;5051481;28;20277;-77
2022/06/29 10:18:25;;;;;;;3.22;1.33;;;30.90;56.40;;;;;;5050227;28;20736;-76
2022/06/29 10:20:53;;;;;;;5.45;1.70;;;30.70;56.30;;;;;;5062533;28;20687;-76
2022/06/29 10:23:44;;;;;;;3.72;1.40;;;30.70;56.70;;;;;;5053113;28;20670;-76
2022/06/29 10:26:40;;;;;;;9.60;2.75;;;30.70;56.60;;;;;;5062834;28;20219;-76
2022/06/29 10:29:27;;;;;;;8.55;2.08;;;30.90;56.80;;;;;;5055579;28;20889;-76
2022/06/29 10:32:05;;;;;;;4.30;1.40;;;31.20;56.10;;;;;;5057748;28;20302;-76
2022/06/29 10:35:05;;;;;;;4.05;1.55;;;31.50;55.70;;;;;;5031908;28;20301;-76
2022/06/29 10:37:29;;;;;;;2.65;1.67;;;31.50;54.50;;;;;;5049766;28;20789;-76
2022/06/29 10:39:58;;;;;;;3.42;1.85;;;31.50;54.50;;;;;;5063486;28;20219;-76
2022/06/29 10:45:40;;;;;;;3.10;1.40;;;31.50;55.20;;;;;;5042771;28;20226;-76
2022/06/29 10:48:20;;;;;;;1.83;1.27;;;31.50;55.10;;;;;;5054538;28;20243;-76
2022/06/29 10:50:48;;;;;;;2.35;1.65;;;31.40;54.90;;;;;;5062669;28;20250;-76
2022/06/29 10:53:20;;;;;;;2.53;1.45;;;31.20;54.60;;;;;;5035260;28;20222;-76
2022/06/29 10:55:49;;;;;;;9.80;2.60;;;30.90;55.00;;;;;;5042080;28;20322;-75
2022/06/29 10:58:18;;;;;;;3.30;1.50;;;30.60;56.00;;;;;;5051060;28;20354;-75
2022/06/29 11:00:46;;;;;;;8.88;2.15;;;30.40;56.10;;;;;;5060055;28;20269;-76
2022/06/29 11:03:16;;;;;;;10.48;2.35;;;30.30;56.60;;;;;;5056191;28;20231;-76
2022/06/29 11:14:02;;;;;;;2.42;1.30;;;29.70;56.40;;;;;;5045707;28;20302;-76
2022/06/29 11:16:34;;;;;;;9.68;1.73;;;29.60;57.10;;;;;;5037706;28;20238;-76
2022/06/29 11:19:01;;;;;;;1.77;1.48;;;29.60;57.00;;;;;;5059729;28;20249;-75
2022/06/29 11:21:31;;;;;;;2.22;1.63;;;29.60;56.90;;;;;;5059249;28;20219;-76
2022/06/29 11:24:03;;;;;;;2.10;1.30;;;29.50;56.40;;;;;;5055808;28;20299;-76
2022/06/29 11:26:30;;;;;;;3.17;1.65;;;29.40;56.40;;;;;;5056051;28;20224;-75
2022/06/29 11:28:58;;;;;;;7.43;1.90;;;29.40;56.70;;;;;;5064516;28;20290;-75
2022/06/29 11:31:27;;;;;;;5.32;1.50;;;29.40;57.30;;;;;;5058619;28;20227;-76
2022/06/29 11:33:55;;;;;;;3.42;1.10;;;29.50;56.80;;;;;;5054463;28;20227;-74
2022/06/29 11:36:24;;;;;;;9.02;1.90;;;29.70;56.90;;;;;;5059966;28;20234;-76
2022/06/29 11:38:53;;;;;;;6.80;1.60;;;29.80;56.50;;;;;;5056972;28;20265;-76
2022/06/29 11:41:22;;;;;;;5.78;1.40;;;29.90;55.90;;;;;;5053803;28;20695;-75
2022/06/29 11:43:59;;;;;;;5.55;2.20;;;29.90;54.60;;;;;;5053147;28;20234;-75
2022/06/29 11:46:28;;;;;;;4.38;1.90;;;30.00;54.30;;;;;;5030601;28;20253;-76
2022/06/29 11:51:51;;;;;;;5.43;1.73;;;30.20;53.30;;;;;;5051281;28;20234;-76
2022/06/29 11:54:21;;;;;;;14.70;2.90;;;30.30;53.70;;;;;;5041786;28;20262;-76
2022/06/29 11:56:50;;;;;;;4.25;1.73;;;30.40;53.70;;;;;;5057281;28;20215;-76
2022/06/29 11:59:18;;;;;;;3.15;1.70;;;30.60;53.00;;;;;;5043248;28;20231;-74
2022/06/29 12:01:53;;;;;;;4.80;1.65;;;30.70;52.80;;;;;;5057318;28;20223;-76
2022/06/29 12:04:31;;;;;;;5.18;1.70;;;30.70;51.80;;;;;;5053337;28;20365;-75
2022/06/29 12:07:05;;;;;;;3.83;1.75;;;30.80;51.80;;;;;;5054983;28;20235;-76
2022/06/29 12:09:32;;;;;;;2.50;1.30;;;30.80;52.10;;;;;;5044639;28;20227;-75
2022/06/29 12:11:59;;;;;;;4.45;2.15;;;30.80;51.60;;;;;;5054138;28;20235;-76
2022/06/29 12:14:26;;;;;;;5.88;1.92;;;30.90;51.70;;;;;;5053878;28;20308;-76
2022/06/29 12:16:54;;;;;;;9.65;2.67;;;30.80;51.30;;;;;;5063002;28;20227;-76
2022/06/29 12:19:20;;;;;;;2.55;1.30;;;30.70;50.90;;;;;;5061788;28;20223;-76
2022/06/29 12:21:48;;;;;;;7.03;1.92;;;30.60;51.80;;;;;;5058119;28;20219;-76
2022/06/29 12:24:16;;;;;;;11.85;2.58;;;30.50;51.20;;;;;;5041683;28;20231;-76
2022/06/29 12:26:42;;;;;;;8.77;2.80;;;30.40;51.40;;;;;;5057983;28;20304;-75
2022/06/29 12:29:09;;;;;;;5.18;1.80;;;30.30;51.30;;;;;;5053252;28;20232;-76
2022/06/29 12:31:36;;;;;;;3.28;1.60;;;30.40;51.50;;;;;;5057395;28;20211;-73
2022/06/29 12:34:05;;;;;;;2.63;1.55;;;30.50;51.00;;;;;;5054607;28;20232;-75
2022/06/29 12:36:32;;;;;;;2.78;1.35;;;30.80;50.00;;;;;;5054080;28;20849;-74
2022/06/29 12:38:58;;;;;;;3.53;1.55;;;31.10;48.80;;;;;;5057254;28;20223;-76
2022/06/29 12:41:25;;;;;;;3.88;1.30;;;31.20;48.80;;;;;;5056246;28;20235;-76
2022/06/29 12:43:52;;;;;;;4.85;1.63;;;31.40;48.50;;;;;;5053529;28;20232;-78
2022/06/29 12:46:18;;;;;;;1.92;1.30;;;31.60;47.80;;;;;;5046285;28;20295;-79
2022/06/29 12:48:45;;;;;;;4.30;1.50;;;31.60;46.80;;;;;;5065154;28;20688;-78
2022/06/29 12:51:13;;;;;;;2.78;1.30;;;31.70;47.00;;;;;;5057763;28;20238;-77
2022/06/29 12:53:40;;;;;;;5.35;1.95;;;31.80;47.50;;;;;;5060398;28;20248;-78
2022/06/29 12:56:07;;;;;;;2.00;1.30;;;31.80;46.50;;;;;;5066872;28;20214;-78
2022/06/29 12:58:35;;;;;;;4.53;1.60;;;31.90;46.50;;;;;;5058150;28;20226;-78
2022/06/29 13:01:02;;;;;;;2.65;1.25;;;32.10;46.70;;;;;;5058011;28;20226;-79
2022/06/29 13:03:29;;;;;;;1.35;1.10;;;32.20;46.50;;;;;;5054433;28;20232;-78
2022/06/29 13:05:55;;;;;;;4.38;1.55;;;32.40;46.70;;;;;;5056982;28;20246;-80
2022/06/29 13:08:23;;;;;;;1.90;1.25;;;32.70;47.30;;;;;;5064831;28;20223;-79
2022/06/29 13:10:50;;;;;;;2.60;1.30;;;32.90;46.00;;;;;;5069440;28;20241;-79
2022/06/29 13:13:17;;;;;;;5.43;1.30;;;33.10;46.30;;;;;;5059985;28;20323;-79
2022/06/29 13:15:44;;;;;;;2.38;1.00;;;33.20;45.90;;;;;;5055027;28;20248;-80